sensor_id;sensor_type;location;lat;lon;timestamp;P1;durP1;ratioP1;P2;durP2;ratioP2
35294;SDS011;21413;48.032;7.764;2023-04-01T00:02:20;1.60;;;0.67;;
35294;SDS011;21413;48.032;7.764;2023-04-01T00:04:46;0.50;;;0.40;;
35294;SDS011;21413;48.032;7.764;2023-04-01T00:07:12;1.13;;;0.53;;
35294;SDS011;21413;48.032;7.764;2023-04-01T00:09:38;0.43;;;0.43;;
35294;SDS011;21413;48.032;7.764;2023-04-01T00:12:04;0.50;;;0.50;;
35294;SDS011;21413;48.032;7.764;2023-04-01T00:14:30;0.67;;;0.60;;
35294;SDS011;21413;48.032;7.764;2023-04-01T00:16:56;0.60;;;0.60;;
35294;SDS011;21413;48.032;7.764;2023-04-01T00:19:22;0.60;;;0.60;;
35294;SDS011;21413;48.032;7.764;2023-04-01T00:21:48;2.00;;;0.70;;
35294;SDS011;21413;48.032;7.764;2023-04-01T00:24:14;0.60;;;0.60;;
35294;SDS011;21413;48.032;7.764;2023-04-01T00:26:40;1.63;;;0.70;;
35294;SDS011;21413;48.032;7.764;2023-04-01T00:29:07;1.53;;;0.60;;
35294;SDS011;21413;48.032;7.764;2023-04-01T00:31:35;1.93;;;0.50;;
35294;SDS011;21413;48.032;7.764;2023-04-01T00:34:01;0.70;;;0.63;;
35294;SDS011;21413;48.032;7.764;2023-04-01T00:36:27;2.73;;;0.60;;
35294;SDS011;21413;48.032;7.764;2023-04-01T00:38:56;2.20;;;0.70;;
35294;SDS011;21413;48.032;7.764;2023-04-01T00:41:24;1.10;;;0.57;;
35294;SDS011;21413;48.032;7.764;2023-04-01T00:43:51;1.03;;;0.80;;
35294;SDS011;21413;48.032;7.764;2023-04-01T00:46:17;0.63;;;0.63;;
35294;SDS011;21413;48.032;7.764;2023-04-01T00:48:47;0.67;;;0.63;;
35294;SDS011;21413;48.032;7.764;2023-04-01T00:51:17;2.80;;;0.97;;
35294;SDS011;21413;48.032;7.764;2023-04-01T00:53:45;2.67;;;0.60;;
35294;SDS011;21413;48.032;7.764;2023-04-01T00:56:13;0.97;;;0.70;;
35294;SDS011;21413;48.032;7.764;2023-04-01T00:58:43;2.50;;;1.10;;
35294;SDS011;21413;48.032;7.764;2023-04-01T01:01:09;1.47;;;0.80;;
35294;SDS011;21413;48.032;7.764;2023-04-01T01:03:38;2.63;;;1.00;;
35294;SDS011;21413;48.032;7.764;2023-04-01T01:06:07;1.93;;;1.10;;
35294;SDS011;21413;48.032;7.764;2023-04-01T01:08:39;3.17;;;1.00;;
35294;SDS011;21413;48.032;7.764;2023-04-01T01:11:09;3.93;;;1.00;;
35294;SDS011;21413;48.032;7.764;2023-04-01T01:13:51;2.40;;;1.07;;
35294;SDS011;21413;48.032;7.764;2023-04-01T01:16:27;11.63;;;1.40;;
35294;SDS011;21413;48.032;7.764;2023-04-01T01:24:53;5.43;;;1.57;;
35294;SDS011;21413;48.032;7.764;2023-04-01T01:27:21;6.33;;;1.40;;
35294;SDS011;21413;48.032;7.764;2023-04-01T01:35:02;6.60;;;1.93;;
35294;SDS011;21413;48.032;7.764;2023-04-01T01:37:28;3.53;;;1.73;;
35294;SDS011;21413;48.032;7.764;2023-04-01T01:39:59;12.20;;;1.70;;
35294;SDS011;21413;48.032;7.764;2023-04-01T01:42:26;5.27;;;2.23;;
35294;SDS011;21413;48.032;7.764;2023-04-01T01:44:54;10.00;;;2.40;;
35294;SDS011;21413;48.032;7.764;2023-04-01T01:47:21;10.67;;;2.50;;
35294;SDS011;21413;48.032;7.764;2023-04-01T01:49:47;8.17;;;2.30;;
35294;SDS011;21413;48.032;7.764;2023-04-01T01:52:14;9.93;;;2.23;;
35294;SDS011;21413;48.032;7.764;2023-04-01T01:54:48;7.60;;;2.63;;
35294;SDS011;21413;48.032;7.764;2023-04-01T01:57:14;9.40;;;2.50;;
35294;SDS011;21413;48.032;7.764;2023-04-01T01:59:41;9.60;;;2.90;;
35294;SDS011;21413;48.032;7.764;2023-04-01T02:02:08;14.60;;;2.57;;
35294;SDS011;21413;48.032;7.764;2023-04-01T02:04:39;13.80;;;3.63;;
35294;SDS011;21413;48.032;7.764;2023-04-01T02:07:10;7.07;;;2.10;;
35294;SDS011;21413;48.032;7.764;2023-04-01T02:09:38;19.73;;;3.13;;
35294;SDS011;21413;48.032;7.764;2023-04-01T02:12:04;8.23;;;2.50;;
35294;SDS011;21413;48.032;7.764;2023-04-01T02:14:52;16.60;;;3.20;;
35294;SDS011;21413;48.032;7.764;2023-04-01T02:17:20;8.30;;;2.50;;
35294;SDS011;21413;48.032;7.764;2023-04-01T02:20:06;10.93;;;2.50;;
35294;SDS011;21413;48.032;7.764;2023-04-01T02:22:34;9.03;;;2.53;;
35294;SDS011;21413;48.032;7.764;2023-04-01T02:25:06;6.83;;;2.60;;
35294;SDS011;21413;48.032;7.764;2023-04-01T02:27:32;11.57;;;3.30;;
35294;SDS011;21413;48.032;7.764;2023-04-01T02:29:58;8.03;;;2.47;;
35294;SDS011;21413;48.032;7.764;2023-04-01T02:32:24;14.43;;;3.40;;
35294;SDS011;21413;48.032;7.764;2023-04-01T02:34:51;4.83;;;1.93;;
35294;SDS011;21413;48.032;7.764;2023-04-01T02:37:17;11.70;;;1.80;;
35294;SDS011;21413;48.032;7.764;2023-04-01T02:39:43;5.13;;;1.80;;
35294;SDS011;21413;48.032;7.764;2023-04-01T02:42:09;13.97;;;2.27;;
35294;SDS011;21413;48.032;7.764;2023-04-01T02:44:35;10.10;;;2.00;;
35294;SDS011;21413;48.032;7.764;2023-04-01T02:47:02;6.43;;;2.03;;
35294;SDS011;21413;48.032;7.764;2023-04-01T02:49:28;6.67;;;1.90;;
35294;SDS011;21413;48.032;7.764;2023-04-01T02:51:54;11.00;;;2.07;;
35294;SDS011;21413;48.032;7.764;2023-04-01T02:54:20;5.80;;;1.60;;
35294;SDS011;21413;48.032;7.764;2023-04-01T02:56:46;4.47;;;1.90;;
35294;SDS011;21413;48.032;7.764;2023-04-01T02:59:12;10.73;;;1.83;;
35294;SDS011;21413;48.032;7.764;2023-04-01T03:01:38;10.43;;;2.10;;
35294;SDS011;21413;48.032;7.764;2023-04-01T03:04:04;8.00;;;2.00;;
35294;SDS011;21413;48.032;7.764;2023-04-01T03:06:30;8.53;;;2.07;;
35294;SDS011;21413;48.032;7.764;2023-04-01T03:08:56;7.07;;;2.33;;
35294;SDS011;21413;48.032;7.764;2023-04-01T03:11:22;10.23;;;2.60;;
35294;SDS011;21413;48.032;7.764;2023-04-01T03:13:48;11.37;;;2.13;;
35294;SDS011;21413;48.032;7.764;2023-04-01T03:16:17;9.73;;;2.50;;
35294;SDS011;21413;48.032;7.764;2023-04-01T03:18:43;18.57;;;3.27;;
35294;SDS011;21413;48.032;7.764;2023-04-01T03:21:19;9.50;;;2.70;;
35294;SDS011;21413;48.032;7.764;2023-04-01T03:23:45;9.00;;;2.80;;
35294;SDS011;21413;48.032;7.764;2023-04-01T03:26:11;16.23;;;3.47;;
35294;SDS011;21413;48.032;7.764;2023-04-01T03:28:38;17.87;;;3.10;;
35294;SDS011;21413;48.032;7.764;2023-04-01T03:31:04;9.47;;;3.03;;
35294;SDS011;21413;48.032;7.764;2023-04-01T03:33:31;8.10;;;2.23;;
35294;SDS011;21413;48.032;7.764;2023-04-01T03:35:57;10.43;;;2.40;;
35294;SDS011;21413;48.032;7.764;2023-04-01T03:38:23;8.17;;;2.17;;
35294;SDS011;21413;48.032;7.764;2023-04-01T03:40:49;6.67;;;2.00;;
35294;SDS011;21413;48.032;7.764;2023-04-01T03:43:15;3.83;;;1.33;;
35294;SDS011;21413;48.032;7.764;2023-04-01T03:45:48;6.83;;;1.63;;
35294;SDS011;21413;48.032;7.764;2023-04-01T03:48:14;5.03;;;1.40;;
35294;SDS011;21413;48.032;7.764;2023-04-01T03:50:41;3.90;;;1.20;;
35294;SDS011;21413;48.032;7.764;2023-04-01T03:53:09;7.43;;;1.60;;
35294;SDS011;21413;48.032;7.764;2023-04-01T03:55:36;5.37;;;1.57;;
35294;SDS011;21413;48.032;7.764;2023-04-01T03:58:02;6.03;;;1.70;;
35294;SDS011;21413;48.032;7.764;2023-04-01T04:00:29;4.43;;;1.27;;
35294;SDS011;21413;48.032;7.764;2023-04-01T04:02:55;4.97;;;1.20;;
35294;SDS011;21413;48.032;7.764;2023-04-01T04:05:24;4.40;;;1.37;;
35294;SDS011;21413;48.032;7.764;2023-04-01T04:07:50;6.67;;;1.50;;
35294;SDS011;21413;48.032;7.764;2023-04-01T04:10:16;2.73;;;1.17;;
35294;SDS011;21413;48.032;7.764;2023-04-01T04:12:42;2.20;;;1.17;;
35294;SDS011;21413;48.032;7.764;2023-04-01T04:15:08;1.90;;;1.23;;
35294;SDS011;21413;48.032;7.764;2023-04-01T04:17:35;7.27;;;1.53;;
35294;SDS011;21413;48.032;7.764;2023-04-01T04:20:01;3.10;;;1.57;;
35294;SDS011;21413;48.032;7.764;2023-04-01T04:22:26;8.53;;;1.77;;
35294;SDS011;21413;48.032;7.764;2023-04-01T04:24:55;3.43;;;1.50;;
35294;SDS011;21413;48.032;7.764;2023-04-01T04:27:23;2.23;;;1.47;;
35294;SDS011;21413;48.032;7.764;2023-04-01T04:29:49;3.33;;;1.60;;
35294;SDS011;21413;48.032;7.764;2023-04-01T04:32:15;5.93;;;1.83;;
35294;SDS011;21413;48.032;7.764;2023-04-01T04:34:41;5.77;;;1.93;;
35294;SDS011;21413;48.032;7.764;2023-04-01T04:37:07;5.07;;;1.47;;
35294;SDS011;21413;48.032;7.764;2023-04-01T04:39:33;6.73;;;1.70;;
35294;SDS011;21413;48.032;7.764;2023-04-01T04:41:59;5.93;;;1.67;;
35294;SDS011;21413;48.032;7.764;2023-04-01T04:44:27;7.33;;;1.80;;
35294;SDS011;21413;48.032;7.764;2023-04-01T04:46:53;10.07;;;2.10;;
35294;SDS011;21413;48.032;7.764;2023-04-01T04:49:19;3.73;;;1.33;;
35294;SDS011;21413;48.032;7.764;2023-04-01T04:51:45;7.40;;;1.70;;
35294;SDS011;21413;48.032;7.764;2023-04-01T04:54:11;7.63;;;2.13;;
35294;SDS011;21413;48.032;7.764;2023-04-01T04:56:37;11.57;;;2.63;;
35294;SDS011;21413;48.032;7.764;2023-04-01T04:59:03;5.70;;;1.83;;
35294;SDS011;21413;48.032;7.764;2023-04-01T05:01:30;4.33;;;1.60;;
35294;SDS011;21413;48.032;7.764;2023-04-01T05:03:56;9.73;;;1.83;;
35294;SDS011;21413;48.032;7.764;2023-04-01T05:06:24;5.97;;;1.73;;
35294;SDS011;21413;48.032;7.764;2023-04-01T05:08:56;10.83;;;1.63;;
35294;SDS011;21413;48.032;7.764;2023-04-01T05:11:22;8.43;;;2.10;;
35294;SDS011;21413;48.032;7.764;2023-04-01T05:13:50;11.63;;;1.60;;
35294;SDS011;21413;48.032;7.764;2023-04-01T05:16:19;5.37;;;1.40;;
35294;SDS011;21413;48.032;7.764;2023-04-01T05:18:45;8.47;;;1.53;;
35294;SDS011;21413;48.032;7.764;2023-04-01T05:21:12;8.23;;;1.67;;
35294;SDS011;21413;48.032;7.764;2023-04-01T05:23:38;3.43;;;1.43;;
35294;SDS011;21413;48.032;7.764;2023-04-01T05:26:05;6.23;;;1.90;;
35294;SDS011;21413;48.032;7.764;2023-04-01T05:28:31;5.13;;;1.40;;
35294;SDS011;21413;48.032;7.764;2023-04-01T05:31:01;3.20;;;1.40;;
35294;SDS011;21413;48.032;7.764;2023-04-01T05:33:27;4.23;;;1.50;;
35294;SDS011;21413;48.032;7.764;2023-04-01T05:35:56;3.90;;;1.60;;
35294;SDS011;21413;48.032;7.764;2023-04-01T05:38:22;4.57;;;2.23;;
35294;SDS011;21413;48.032;7.764;2023-04-01T05:40:50;5.33;;;1.60;;
35294;SDS011;21413;48.032;7.764;2023-04-01T05:43:18;4.50;;;1.43;;
35294;SDS011;21413;48.032;7.764;2023-04-01T05:45:48;4.87;;;1.90;;
35294;SDS011;21413;48.032;7.764;2023-04-01T05:48:14;6.20;;;1.40;;
35294;SDS011;21413;48.032;7.764;2023-04-01T05:50:42;11.53;;;1.90;;
35294;SDS011;21413;48.032;7.764;2023-04-01T05:53:11;2.33;;;1.63;;
35294;SDS011;21413;48.032;7.764;2023-04-01T05:55:37;7.07;;;1.90;;
35294;SDS011;21413;48.032;7.764;2023-04-01T05:58:03;4.03;;;1.60;;
35294;SDS011;21413;48.032;7.764;2023-04-01T06:00:29;3.57;;;1.00;;
35294;SDS011;21413;48.032;7.764;2023-04-01T06:02:57;10.40;;;1.30;;
35294;SDS011;21413;48.032;7.764;2023-04-01T06:05:24;6.37;;;1.37;;
35294;SDS011;21413;48.032;7.764;2023-04-01T06:08:00;6.60;;;1.70;;
35294;SDS011;21413;48.032;7.764;2023-04-01T06:18:34;5.77;;;1.60;;
35294;SDS011;21413;48.032;7.764;2023-04-01T06:41:56;4.00;;;1.57;;
35294;SDS011;21413;48.032;7.764;2023-04-01T06:54:29;3.20;;;1.10;;
35294;SDS011;21413;48.032;7.764;2023-04-01T06:57:01;3.40;;;1.43;;
35294;SDS011;21413;48.032;7.764;2023-04-01T06:59:28;3.00;;;1.10;;
35294;SDS011;21413;48.032;7.764;2023-04-01T07:01:57;1.13;;;0.87;;
35294;SDS011;21413;48.032;7.764;2023-04-01T07:04:34;5.30;;;1.33;;
35294;SDS011;21413;48.032;7.764;2023-04-01T07:09:52;0.80;;;0.73;;
35294;SDS011;21413;48.032;7.764;2023-04-01T07:12:22;4.20;;;1.40;;
35294;SDS011;21413;48.032;7.764;2023-04-01T07:14:53;4.20;;;1.20;;
35294;SDS011;21413;48.032;7.764;2023-04-01T07:17:21;5.20;;;1.00;;
35294;SDS011;21413;48.032;7.764;2023-04-01T07:19:52;1.33;;;0.80;;
35294;SDS011;21413;48.032;7.764;2023-04-01T07:25:00;1.83;;;1.23;;
35294;SDS011;21413;48.032;7.764;2023-04-01T07:27:28;6.40;;;1.80;;
35294;SDS011;21413;48.032;7.764;2023-04-01T07:29:57;3.53;;;1.40;;
35294;SDS011;21413;48.032;7.764;2023-04-01T07:32:42;2.70;;;1.17;;
35294;SDS011;21413;48.032;7.764;2023-04-01T07:35:21;13.77;;;1.20;;
35294;SDS011;21413;48.032;7.764;2023-04-01T07:56:11;1.57;;;1.10;;
35294;SDS011;21413;48.032;7.764;2023-04-01T07:58:43;4.93;;;1.33;;
35294;SDS011;21413;48.032;7.764;2023-04-01T08:01:17;6.67;;;2.03;;
35294;SDS011;21413;48.032;7.764;2023-04-01T08:06:24;2.10;;;1.50;;
35294;SDS011;21413;48.032;7.764;2023-04-01T08:19:46;2.40;;;1.30;;
35294;SDS011;21413;48.032;7.764;2023-04-01T08:22:23;1.00;;;1.00;;
35294;SDS011;21413;48.032;7.764;2023-04-01T08:24:51;1.30;;;1.20;;
35294;SDS011;21413;48.032;7.764;2023-04-01T08:30:06;2.50;;;1.20;;
35294;SDS011;21413;48.032;7.764;2023-04-01T08:32:41;1.60;;;1.30;;
35294;SDS011;21413;48.032;7.764;2023-04-01T08:37:35;0.90;;;0.90;;
35294;SDS011;21413;48.032;7.764;2023-04-01T08:45:21;2.50;;;1.27;;
35294;SDS011;21413;48.032;7.764;2023-04-01T08:47:54;0.63;;;0.63;;
35294;SDS011;21413;48.032;7.764;2023-04-01T08:56:14;1.10;;;0.87;;
35294;SDS011;21413;48.032;7.764;2023-04-01T09:07:14;2.77;;;1.53;;
35294;SDS011;21413;48.032;7.764;2023-04-01T09:22:37;2.33;;;0.83;;
35294;SDS011;21413;48.032;7.764;2023-04-01T09:25:15;1.80;;;0.60;;
35294;SDS011;21413;48.032;7.764;2023-04-01T09:35:46;3.03;;;1.20;;
35294;SDS011;21413;48.032;7.764;2023-04-01T09:40:54;5.23;;;1.20;;
35294;SDS011;21413;48.032;7.764;2023-04-01T09:43:22;1.30;;;1.20;;
35294;SDS011;21413;48.032;7.764;2023-04-01T09:58:37;1.27;;;0.97;;
35294;SDS011;21413;48.032;7.764;2023-04-01T10:22:02;1.10;;;1.10;;
35294;SDS011;21413;48.032;7.764;2023-04-01T10:40:03;3.10;;;1.03;;
35294;SDS011;21413;48.032;7.764;2023-04-01T10:42:42;1.87;;;0.67;;
35294;SDS011;21413;48.032;7.764;2023-04-01T10:47:50;2.37;;;0.90;;
35294;SDS011;21413;48.032;7.764;2023-04-01T11:32:54;4.33;;;1.23;;
35294;SDS011;21413;48.032;7.764;2023-04-01T11:48:33;2.10;;;1.03;;
35294;SDS011;21413;48.032;7.764;2023-04-01T11:59:05;1.57;;;1.50;;
35294;SDS011;21413;48.032;7.764;2023-04-01T12:01:44;0.50;;;0.50;;
35294;SDS011;21413;48.032;7.764;2023-04-01T12:07:10;1.83;;;0.70;;
35294;SDS011;21413;48.032;7.764;2023-04-01T12:12:39;0.83;;;0.83;;
35294;SDS011;21413;48.032;7.764;2023-04-01T12:20:26;4.40;;;0.90;;
35294;SDS011;21413;48.032;7.764;2023-04-01T12:23:20;1.83;;;0.77;;
35294;SDS011;21413;48.032;7.764;2023-04-01T12:28:44;2.93;;;1.27;;
35294;SDS011;21413;48.032;7.764;2023-04-01T12:31:33;1.80;;;0.70;;
35294;SDS011;21413;48.032;7.764;2023-04-01T12:34:25;2.57;;;1.10;;
35294;SDS011;21413;48.032;7.764;2023-04-01T12:37:02;1.50;;;1.00;;
35294;SDS011;21413;48.032;7.764;2023-04-01T12:39:44;0.83;;;0.60;;
35294;SDS011;21413;48.032;7.764;2023-04-01T12:42:24;1.17;;;0.60;;
35294;SDS011;21413;48.032;7.764;2023-04-01T12:45:03;1.90;;;1.20;;
35294;SDS011;21413;48.032;7.764;2023-04-01T12:48:00;1.73;;;0.60;;
35294;SDS011;21413;48.032;7.764;2023-04-01T13:00:40;4.00;;;0.87;;
35294;SDS011;21413;48.032;7.764;2023-04-01T13:14:08;0.80;;;0.80;;
35294;SDS011;21413;48.032;7.764;2023-04-01T13:19:28;0.70;;;0.70;;
35294;SDS011;21413;48.032;7.764;2023-04-01T13:34:59;1.70;;;0.97;;
35294;SDS011;21413;48.032;7.764;2023-04-01T13:42:41;3.13;;;0.70;;
35294;SDS011;21413;48.032;7.764;2023-04-01T14:03:27;3.90;;;1.40;;
35294;SDS011;21413;48.032;7.764;2023-04-01T14:13:41;1.20;;;0.90;;
35294;SDS011;21413;48.032;7.764;2023-04-01T14:21:22;1.13;;;1.13;;
35294;SDS011;21413;48.032;7.764;2023-04-01T14:34:25;0.70;;;0.70;;
35294;SDS011;21413;48.032;7.764;2023-04-01T14:47:28;0.60;;;0.60;;
35294;SDS011;21413;48.032;7.764;2023-04-01T14:50:05;0.50;;;0.50;;
35294;SDS011;21413;48.032;7.764;2023-04-01T14:52:36;1.33;;;0.80;;
35294;SDS011;21413;48.032;7.764;2023-04-01T14:55:51;1.17;;;0.50;;
35294;SDS011;21413;48.032;7.764;2023-04-01T14:58:40;1.23;;;0.50;;
35294;SDS011;21413;48.032;7.764;2023-04-01T15:00:55;0.77;;;0.53;;
35294;SDS011;21413;48.032;7.764;2023-04-01T15:03:29;1.00;;;0.60;;
35294;SDS011;21413;48.032;7.764;2023-04-01T15:06:06;3.53;;;0.80;;
35294;SDS011;21413;48.032;7.764;2023-04-01T15:11:23;1.03;;;0.50;;
35294;SDS011;21413;48.032;7.764;2023-04-01T15:13:58;3.63;;;0.60;;
35294;SDS011;21413;48.032;7.764;2023-04-01T15:32:16;1.70;;;0.97;;
35294;SDS011;21413;48.032;7.764;2023-04-01T15:37:55;0.60;;;0.60;;
35294;SDS011;21413;48.032;7.764;2023-04-01T15:40:29;0.77;;;0.57;;
35294;SDS011;21413;48.032;7.764;2023-04-01T15:43:06;1.40;;;1.30;;
35294;SDS011;21413;48.032;7.764;2023-04-01T15:50:51;0.87;;;0.87;;
35294;SDS011;21413;48.032;7.764;2023-04-01T15:53:25;0.80;;;0.70;;
35294;SDS011;21413;48.032;7.764;2023-04-01T15:55:59;0.97;;;0.77;;
35294;SDS011;21413;48.032;7.764;2023-04-01T15:58:38;0.80;;;0.60;;
35294;SDS011;21413;48.032;7.764;2023-04-01T16:06:08;1.20;;;1.20;;
35294;SDS011;21413;48.032;7.764;2023-04-01T16:08:41;0.90;;;0.90;;
35294;SDS011;21413;48.032;7.764;2023-04-01T16:11:20;2.97;;;0.77;;
35294;SDS011;21413;48.032;7.764;2023-04-01T16:35:22;0.60;;;0.60;;
35294;SDS011;21413;48.032;7.764;2023-04-01T16:37:21;0.83;;;0.83;;
35294;SDS011;21413;48.032;7.764;2023-04-01T16:47:38;0.70;;;0.70;;
35294;SDS011;21413;48.032;7.764;2023-04-01T16:50:13;1.17;;;0.67;;
35294;SDS011;21413;48.032;7.764;2023-04-01T16:52:43;2.20;;;1.07;;
35294;SDS011;21413;48.032;7.764;2023-04-01T16:55:17;1.13;;;1.13;;
35294;SDS011;21413;48.032;7.764;2023-04-01T16:57:45;1.73;;;1.03;;
35294;SDS011;21413;48.032;7.764;2023-04-01T17:02:47;1.13;;;1.13;;
35294;SDS011;21413;48.032;7.764;2023-04-01T17:05:15;1.57;;;1.20;;
35294;SDS011;21413;48.032;7.764;2023-04-01T17:20:48;0.53;;;0.53;;
35294;SDS011;21413;48.032;7.764;2023-04-01T17:39:07;2.30;;;1.23;;
35294;SDS011;21413;48.032;7.764;2023-04-01T17:41:46;1.03;;;1.03;;
35294;SDS011;21413;48.032;7.764;2023-04-01T17:52:12;2.03;;;1.27;;
35294;SDS011;21413;48.032;7.764;2023-04-01T17:54:47;1.23;;;1.13;;
35294;SDS011;21413;48.032;7.764;2023-04-01T18:07:42;1.17;;;1.17;;
35294;SDS011;21413;48.032;7.764;2023-04-01T18:10:28;1.60;;;1.50;;
35294;SDS011;21413;48.032;7.764;2023-04-01T18:19:26;2.03;;;1.30;;
35294;SDS011;21413;48.032;7.764;2023-04-01T18:29:23;1.30;;;1.30;;
35294;SDS011;21413;48.032;7.764;2023-04-01T18:31:44;1.23;;;1.23;;
35294;SDS011;21413;48.032;7.764;2023-04-01T18:34:19;1.07;;;1.07;;
35294;SDS011;21413;48.032;7.764;2023-04-01T18:36:53;1.20;;;1.20;;
35294;SDS011;21413;48.032;7.764;2023-04-01T18:39:30;1.00;;;1.00;;
35294;SDS011;21413;48.032;7.764;2023-04-01T18:42:00;1.53;;;1.13;;
35294;SDS011;21413;48.032;7.764;2023-04-01T18:44:43;2.60;;;1.23;;
35294;SDS011;21413;48.032;7.764;2023-04-01T18:49:45;1.40;;;1.30;;
35294;SDS011;21413;48.032;7.764;2023-04-01T18:52:31;4.73;;;1.57;;
35294;SDS011;21413;48.032;7.764;2023-04-01T18:57:40;1.70;;;1.67;;
35294;SDS011;21413;48.032;7.764;2023-04-01T19:00:20;1.87;;;1.77;;
35294;SDS011;21413;48.032;7.764;2023-04-01T19:02:56;1.63;;;1.50;;
35294;SDS011;21413;48.032;7.764;2023-04-01T19:07:56;2.00;;;1.80;;
35294;SDS011;21413;48.032;7.764;2023-04-01T19:13:38;1.90;;;1.80;;
35294;SDS011;21413;48.032;7.764;2023-04-01T19:18:39;2.70;;;2.37;;
35294;SDS011;21413;48.032;7.764;2023-04-01T19:21:15;3.70;;;2.37;;
35294;SDS011;21413;48.032;7.764;2023-04-01T19:23:53;1.87;;;1.77;;
35294;SDS011;21413;48.032;7.764;2023-04-01T19:29:00;1.83;;;1.83;;
35294;SDS011;21413;48.032;7.764;2023-04-01T19:37:04;1.60;;;1.50;;
35294;SDS011;21413;48.032;7.764;2023-04-01T20:16:16;2.03;;;1.80;;
35294;SDS011;21413;48.032;7.764;2023-04-01T20:18:52;2.00;;;1.90;;
35294;SDS011;21413;48.032;7.764;2023-04-01T20:21:30;1.53;;;1.53;;
35294;SDS011;21413;48.032;7.764;2023-04-01T20:26:30;1.60;;;1.60;;
35294;SDS011;21413;48.032;7.764;2023-04-01T20:37:29;2.20;;;1.10;;
35294;SDS011;21413;48.032;7.764;2023-04-01T20:40:08;1.00;;;1.00;;
35294;SDS011;21413;48.032;7.764;2023-04-01T20:48:12;1.00;;;1.00;;
35294;SDS011;21413;48.032;7.764;2023-04-01T20:53:15;1.20;;;1.00;;
35294;SDS011;21413;48.032;7.764;2023-04-01T21:00:46;0.83;;;0.80;;
35294;SDS011;21413;48.032;7.764;2023-04-01T21:14:05;0.97;;;0.97;;
35294;SDS011;21413;48.032;7.764;2023-04-01T21:43:34;1.10;;;1.10;;
35294;SDS011;21413;48.032;7.764;2023-04-01T21:46:11;5.50;;;4.60;;
35294;SDS011;21413;48.032;7.764;2023-04-01T21:51:19;1.33;;;1.10;;
35294;SDS011;21413;48.032;7.764;2023-04-01T21:56:29;1.37;;;1.37;;
35294;SDS011;21413;48.032;7.764;2023-04-01T22:09:39;1.37;;;1.27;;
35294;SDS011;21413;48.032;7.764;2023-04-01T22:17:17;2.97;;;1.40;;
35294;SDS011;21413;48.032;7.764;2023-04-01T22:25:31;1.07;;;1.07;;
35294;SDS011;21413;48.032;7.764;2023-04-01T22:30:20;2.63;;;1.17;;
35294;SDS011;21413;48.032;7.764;2023-04-01T22:33:08;2.10;;;1.07;;
35294;SDS011;21413;48.032;7.764;2023-04-01T22:43:16;2.30;;;1.20;;
35294;SDS011;21413;48.032;7.764;2023-04-01T22:50:43;1.97;;;0.80;;
35294;SDS011;21413;48.032;7.764;2023-04-01T22:55:43;1.07;;;0.97;;
35294;SDS011;21413;48.032;7.764;2023-04-01T22:58:14;0.97;;;0.77;;
35294;SDS011;21413;48.032;7.764;2023-04-01T23:00:48;1.40;;;1.30;;
35294;SDS011;21413;48.032;7.764;2023-04-01T23:05:51;0.73;;;0.70;;
35294;SDS011;21413;48.032;7.764;2023-04-01T23:11:02;1.20;;;1.20;;
35294;SDS011;21413;48.032;7.764;2023-04-01T23:13:37;1.70;;;0.63;;
35294;SDS011;21413;48.032;7.764;2023-04-01T23:16:04;0.83;;;0.83;;
35294;SDS011;21413;48.032;7.764;2023-04-01T23:21:23;1.20;;;0.93;;
35294;SDS011;21413;48.032;7.764;2023-04-01T23:26:40;0.90;;;0.90;;
35294;SDS011;21413;48.032;7.764;2023-04-01T23:29:11;3.50;;;1.20;;
35294;SDS011;21413;48.032;7.764;2023-04-01T23:31:39;0.77;;;0.77;;
35294;SDS011;21413;48.032;7.764;2023-04-01T23:36:39;1.43;;;0.73;;
35294;SDS011;21413;48.032;7.764;2023-04-01T23:41:46;0.90;;;0.90;;
35294;SDS011;21413;48.032;7.764;2023-04-01T23:44:12;1.63;;;1.10;;
35294;SDS011;21413;48.032;7.764;2023-04-01T23:46:40;1.70;;;1.00;;
35294;SDS011;21413;48.032;7.764;2023-04-01T23:49:12;2.50;;;1.47;;
35294;SDS011;21413;48.032;7.764;2023-04-01T23:51:39;1.70;;;1.33;;
35294;SDS011;21413;48.032;7.764;2023-04-01T23:56:54;1.00;;;0.90;;
35294;SDS011;21413;48.032;7.764;2023-04-01T23:59:27;1.03;;;1.00;;
